Time;durP1;ratioP1;P1;durP2;ratioP2;P2;SDS_P1;SDS_P2;PMS_P1;PMS_P2;Temp;Humidity;BMP_temperature;BMP_pressure;BME280_temperature;BME280_humidity;BME280_pressure;Samples;Min_cycle;Max_cycle;Signal;HPM_P1;HPM_P2
2021/07/06 00:00:11;;;;;;;15.25;3.60;;;;;;;13.67;84.63;99149.38;4993113;28;20053;-79
2021/07/06 00:02:39;;;;;;;14.45;3.45;;;;;;;13.69;84.97;99158.78;5002804;28;20104;-79
2021/07/06 00:05:07;;;;;;;18.88;4.18;;;;;;;13.76;84.76;99172.28;5013614;28;20453;-79
2021/07/06 00:07:33;;;;;;;21.38;4.55;;;;;;;13.73;84.25;99172.50;5005978;28;20071;-78
2021/07/06 00:09:59;;;;;;;22.67;5.32;;;;;;;13.68;84.29;99162.34;4993728;28;20042;-80
2021/07/06 00:12:26;;;;;;;19.50;4.40;;;;;;;13.72;85.33;99176.91;4993817;28;20088;-79
2021/07/06 00:14:55;;;;;;;25.92;4.78;;;;;;;13.59;84.73;99163.06;4977408;28;20042;-80
2021/07/06 00:17:22;;;;;;;20.33;4.72;;;;;;;13.65;83.77;99175.72;4994320;28;20058;-79
2021/07/06 00:19:50;;;;;;;27.17;5.65;;;;;;;13.67;84.04;99172.97;4993609;28;20047;-79
2021/07/06 00:22:17;;;;;;;31.27;6.07;;;;;;;13.57;83.69;99178.91;4993716;28;20046;-78
2021/07/06 00:24:45;;;;;;;26.40;5.90;;;;;;;13.52;83.94;99172.34;4993564;28;20046;-79
2021/07/06 00:27:12;;;;;;;26.08;4.90;;;;;;;13.51;84.20;99165.44;4976894;28;20054;-80
2021/07/06 00:29:39;;;;;;;31.20;6.18;;;;;;;13.49;83.84;99162.94;4979454;28;20054;-80
2021/07/06 00:32:06;;;;;;;26.27;5.10;;;;;;;13.42;83.18;99153.84;4997969;28;20050;-80
2021/07/06 00:34:32;;;;;;;26.00;5.55;;;;;;;13.37;83.82;99155.94;4997531;28;20132;-80
2021/07/06 00:36:58;;;;;;;23.65;4.55;;;;;;;13.40;83.36;99148.72;4997450;28;20042;-80
2021/07/06 00:39:25;;;;;;;31.23;6.10;;;;;;;13.19;83.36;99121.47;4997058;28;20049;-79
2021/07/06 00:41:52;;;;;;;27.63;5.13;;;;;;;13.24;83.42;99130.66;4996964;28;20050;-79
2021/07/06 00:44:21;;;;;;;31.77;6.32;;;;;;;13.39;83.39;99149.66;4997550;28;20062;-80
2021/07/06 00:46:50;;;;;;;25.13;5.07;;;;;;;13.45;83.02;99145.75;4997487;28;20054;-80
2021/07/06 00:49:17;;;;;;;30.70;5.72;;;;;;;13.45;82.87;99149.22;4997571;28;20177;-79
2021/07/06 00:51:43;;;;;;;35.90;5.20;;;;;;;13.54;83.24;99147.69;4997980;28;20532;-79
2021/07/06 00:54:11;;;;;;;26.60;5.93;;;;;;;13.63;82.49;99143.53;4997921;28;20046;-79
2021/07/06 00:56:38;;;;;;;32.20;5.47;;;;;;;13.75;81.86;99145.19;5008351;28;20088;-78
2021/07/06 00:59:05;;;;;;;32.00;5.95;;;;;;;13.75;82.10;99139.13;5011747;28;20593;-78
2021/07/06 01:01:31;;;;;;;28.90;6.30;;;;;;;13.83;81.70;99136.78;5009621;28;20145;-78
2021/07/06 01:03:57;;;;;;;29.75;5.13;;;;;;;13.74;81.87;99125.19;5002227;28;20046;-80
2021/07/06 01:06:23;;;;;;;32.50;6.20;;;;;;;13.80;81.44;99112.56;5000881;28;20042;-79
2021/07/06 01:08:52;;;;;;;26.25;5.93;;;;;;;13.93;81.32;99127.22;4999470;28;20457;-80
2021/07/06 01:11:19;;;;;;;26.52;5.38;;;;;;;13.95;80.80;99119.22;4999961;28;20403;-79
2021/07/06 01:13:49;;;;;;;23.23;4.85;;;;;;;13.84;81.10;99109.59;5003616;28;20049;-79
2021/07/06 01:16:15;;;;;;;24.05;5.30;;;;;;;14.00;80.88;99114.47;5011984;28;20051;-79
2021/07/06 01:18:43;;;;;;;19.50;4.10;;;;;;;14.04;80.86;99115.91;4981935;28;20061;-79
2021/07/06 01:21:09;;;;;;;30.15;5.47;;;;;;;14.04;80.41;99107.19;4999749;28;20046;-79
2021/07/06 01:23:35;;;;;;;23.25;5.40;;;;;;;14.09;80.72;99115.53;5015039;28;20100;-80
2021/07/06 01:26:04;;;;;;;27.02;5.03;;;;;;;14.13;80.66;99111.72;4999325;28;20130;-79
2021/07/06 01:28:31;;;;;;;27.77;5.35;;;;;;;14.07;80.96;99109.56;4998744;28;20509;-80
2021/07/06 01:30:57;;;;;;;32.35;5.38;;;;;;;13.96;81.48;99093.84;5000573;28;20122;-79
2021/07/06 01:33:26;;;;;;;26.65;4.82;;;;;;;14.03;80.91;99089.78;5000365;28;20046;-78
2021/07/06 01:35:55;;;;;;;30.65;5.88;;;;;;;14.04;81.24;99094.09;5002100;28;20082;-79
2021/07/06 01:38:22;;;;;;;32.63;6.03;;;;;;;14.05;80.81;99099.22;5000929;28;20445;-78
2021/07/06 01:40:49;;;;;;;23.48;5.13;;;;;;;14.03;81.24;99103.72;5010820;28;20064;-78
2021/07/06 01:43:16;;;;;;;23.42;4.90;;;;;;;13.97;81.31;99088.47;5023081;28;20069;-75
2021/07/06 01:45:43;;;;;;;25.23;5.38;;;;;;;14.03;80.73;99097.66;5017520;28;20054;-74
2021/07/06 01:48:09;;;;;;;29.25;5.88;;;;;;;14.05;80.99;99087.88;5017335;28;20077;-75
2021/07/06 01:50:55;;;;;;;20.60;4.25;;;;;;;14.13;80.52;99085.47;5017867;28;20053;-79
2021/07/06 01:53:22;;;;;;;23.95;5.03;;;;;;;14.08;80.50;99077.97;5005250;28;20046;-78
2021/07/06 01:55:50;;;;;;;30.20;4.72;;;;;;;14.11;79.94;99078.69;5001087;28;20046;-79
2021/07/06 01:58:19;;;;;;;23.65;4.50;;;;;;;14.05;80.28;99075.59;4996935;28;20061;-78
2021/07/06 02:00:48;;;;;;;24.30;5.13;;;;;;;14.00;79.99;99072.50;4996546;28;20062;-78
2021/07/06 02:03:14;;;;;;;28.10;5.30;;;;;;;14.05;80.18;99067.72;4995648;28;20522;-75
2021/07/06 02:05:45;;;;;;;20.27;5.05;;;;;;;14.05;80.21;99072.16;4995281;28;20057;-75
2021/07/06 02:08:13;;;;;;;29.83;5.38;;;;;;;13.85;80.70;99047.47;4995172;28;20054;-76
2021/07/06 02:10:41;;;;;;;28.98;5.25;;;;;;;13.89;81.37;99068.09;4995395;28;20057;-76
2021/07/06 02:13:11;;;;;;;27.17;5.65;;;;;;;13.75;82.00;99065.72;4995531;28;20108;-75
2021/07/06 02:15:37;;;;;;;27.58;5.35;;;;;;;13.73;82.82;99062.38;4995601;28;20070;-75
2021/07/06 02:18:04;;;;;;;24.05;5.40;;;;;;;13.77;82.25;99066.44;4995335;28;20487;-79
2021/07/06 02:20:30;;;;;;;24.63;4.45;;;;;;;13.73;82.05;99064.97;4996051;28;20050;-78
2021/07/06 02:22:56;;;;;;;26.08;5.47;;;;;;;13.69;82.05;99059.13;4994940;28;20065;-79
2021/07/06 02:25:22;;;;;;;30.50;5.40;;;;;;;13.70;81.59;99039.84;4995474;28;20129;-79
2021/07/06 02:27:49;;;;;;;25.55;5.38;;;;;;;13.77;81.60;99053.31;4996576;28;20054;-80
2021/07/06 02:30:19;;;;;;;28.73;5.45;;;;;;;13.76;81.99;99041.97;4999823;28;20058;-78
2021/07/06 02:32:48;;;;;;;20.20;4.85;;;;;;;13.75;81.67;99039.50;4995114;28;20057;-79
2021/07/06 02:35:16;;;;;;;21.55;4.65;;;;;;;13.75;81.93;99036.88;5003260;28;20057;-78
2021/07/06 02:37:45;;;;;;;24.88;4.82;;;;;;;13.74;81.79;99037.81;5008052;28;20050;-80
2021/07/06 02:40:14;;;;;;;27.27;5.30;;;;;;;13.75;81.41;99037.69;4995038;28;20047;-79
2021/07/06 02:42:42;;;;;;;27.10;5.63;;;;;;;13.69;81.50;99026.84;4995060;28;20054;-78
2021/07/06 02:45:12;;;;;;;20.55;4.65;;;;;;;13.65;81.62;99031.50;4995098;28;20104;-79
2021/07/06 02:47:40;;;;;;;15.52;4.03;;;;;;;13.60;81.20;99031.84;4995264;28;20482;-80
2021/07/06 02:50:10;;;;;;;24.67;5.10;;;;;;;13.43;81.19;99016.59;4994472;28;20053;-78
2021/07/06 02:52:39;;;;;;;23.35;4.93;;;;;;;13.43;81.50;99034.94;4994664;28;20066;-79
2021/07/06 02:55:07;;;;;;;15.23;3.65;;;;;;;13.37;81.46;99019.66;4994703;28;20069;-79
2021/07/06 02:57:37;;;;;;;19.48;3.92;;;;;;;13.34;82.01;99030.38;4994398;28;20368;-79
2021/07/06 03:00:06;;;;;;;20.15;4.22;;;;;;;13.22;82.37;99030.38;4993599;28;20047;-78
2021/07/06 03:02:34;;;;;;;24.13;4.40;;;;;;;13.11;83.11;99031.19;4957947;28;20085;-80
2021/07/06 03:05:02;;;;;;;22.20;4.47;;;;;;;13.06;83.69;99030.69;4957469;28;20053;-79
2021/07/06 03:07:29;;;;;;;20.30;4.85;;;;;;;12.92;83.59;99010.75;4974447;28;20042;-79
2021/07/06 03:09:56;;;;;;;26.30;6.05;;;;;;;13.04;83.86;99016.88;4974307;28;20131;-80
2021/07/06 03:12:24;;;;;;;22.50;4.32;;;;;;;13.01;84.11;99024.97;4974468;28;20434;-79
2021/07/06 03:14:51;;;;;;;19.85;4.50;;;;;;;12.91;84.49;99018.75;4990696;28;20507;-78
2021/07/06 03:17:18;;;;;;;19.67;4.30;;;;;;;12.92;84.29;99015.19;4993737;28;20096;-79
2021/07/06 03:19:45;;;;;;;21.33;4.72;;;;;;;12.85;84.40;99019.19;4994421;28;20216;-79
2021/07/06 03:22:11;;;;;;;18.60;4.05;;;;;;;12.80;84.48;99017.78;4994386;28;20528;-76
2021/07/06 03:24:39;;;;;;;23.25;4.75;;;;;;;12.74;84.27;99013.00;4977149;28;20102;-79
2021/07/06 03:27:05;;;;;;;18.95;4.10;;;;;;;12.65;84.45;99008.44;4994588;28;20108;-78
2021/07/06 03:29:31;;;;;;;22.00;5.25;;;;;;;12.53;84.69;98991.03;4997469;28;20078;-76
2021/07/06 03:31:59;;;;;;;19.50;4.72;;;;;;;12.52;85.22;99011.09;4976647;28;20046;-77
2021/07/06 03:34:26;;;;;;;19.73;4.03;;;;;;;12.41;85.37;99011.88;4993694;28;20054;-77
2021/07/06 03:36:52;;;;;;;18.95;4.30;;;;;;;12.41;85.74;99011.06;4993503;28;20054;-77
2021/07/06 03:39:18;;;;;;;24.25;4.05;;;;;;;12.28;86.47;98996.25;4993085;28;20069;-79
2021/07/06 03:41:44;;;;;;;20.33;5.03;;;;;;;12.37;86.18;99017.47;4994125;28;20038;-79
2021/07/06 03:44:10;;;;;;;23.83;5.00;;;;;;;12.33;85.85;99022.91;4976465;28;20065;-75
2021/07/06 03:46:36;;;;;;;15.35;4.88;;;;;;;12.18;85.80;99005.72;4994275;28;20053;-78
2021/07/06 03:49:04;;;;;;;19.73;4.28;;;;;;;12.22;86.11;99014.16;4993863;28;20046;-78
2021/07/06 03:51:33;;;;;;;20.20;4.32;;;;;;;12.29;86.28;99031.09;4993736;28;20046;-77
2021/07/06 03:53:58;;;;;;;19.20;4.22;;;;;;;12.20;85.87;99019.53;4993628;28;20053;-78
2021/07/06 03:56:25;;;;;;;18.33;4.00;;;;;;;11.97;85.76;98984.56;4998146;28;20046;-79
2021/07/06 03:58:51;;;;;;;23.08;4.70;;;;;;;12.19;86.23;99024.88;4975568;28;20058;-78
2021/07/06 04:01:17;;;;;;;23.02;4.40;;;;;;;12.24;86.17;99035.81;4993224;28;20058;-76
2021/07/06 04:03:43;;;;;;;23.38;4.80;;;;;;;12.28;85.64;99038.13;4976625;28;20137;-78
2021/07/06 04:06:10;;;;;;;17.15;4.05;;;;;;;12.32;85.31;99047.41;4993559;28;20133;-75
2021/07/06 04:08:36;;;;;;;17.08;3.65;;;;;;;12.28;84.97;99032.03;4993323;28;20429;-76
2021/07/06 04:11:02;;;;;;;15.15;3.88;;;;;;;12.55;84.61;99044.91;4992987;28;20042;-78
2021/07/06 04:13:28;;;;;;;20.40;4.28;;;;;;;12.51;84.13;99034.78;4994728;28;20042;-75
2021/07/06 04:15:54;;;;;;;19.15;5.68;;;;;;;12.53;84.48;99041.56;4993053;28;20094;-75
2021/07/06 04:18:20;;;;;;;22.67;4.65;;;;;;;12.70;84.38;99055.22;4993619;28;20486;-75
2021/07/06 04:20:46;;;;;;;19.63;4.20;;;;;;;12.71;84.26;99054.28;4993834;28;20097;-76
2021/07/06 04:23:13;;;;;;;18.92;4.45;;;;;;;12.73;83.84;99047.13;4993313;28;20160;-75
2021/07/06 04:25:39;;;;;;;20.35;4.50;;;;;;;12.70;83.88;99052.59;4993525;28;20078;-75
2021/07/06 04:28:05;;;;;;;16.48;3.88;;;;;;;12.72;84.13;99056.78;4975840;28;20062;-76
2021/07/06 04:30:31;;;;;;;21.98;4.72;;;;;;;12.63;83.75;99031.25;4993374;28;20050;-76
2021/07/06 04:32:58;;;;;;;19.02;3.90;;;;;;;12.74;83.51;99040.94;4992990;28;20100;-75
2021/07/06 04:35:24;;;;;;;22.33;4.95;;;;;;;12.84;83.50;99052.41;4993536;28;20132;-75
2021/07/06 04:37:50;;;;;;;18.25;4.10;;;;;;;12.87;83.62;99056.59;4992934;28;20054;-76
2021/07/06 04:40:17;;;;;;;19.13;3.80;;;;;;;12.88;83.87;99055.66;4993266;28;20050;-77
2021/07/06 04:42:43;;;;;;;15.15;3.92;;;;;;;12.83;84.33;99050.75;4993055;28;20053;-76
2021/07/06 04:45:10;;;;;;;21.50;4.78;;;;;;;12.73;84.44;99047.97;4991327;28;20090;-76
2021/07/06 04:47:36;;;;;;;16.08;3.92;;;;;;;12.70;84.45;99061.28;4990196;28;20141;-75
2021/07/06 04:50:04;;;;;;;22.65;4.43;;;;;;;12.69;84.53;99064.03;4992693;28;20046;-79
2021/07/06 04:52:30;;;;;;;22.83;5.05;;;;;;;12.71;84.71;99065.56;4990590;28;20094;-77
2021/07/06 04:54:56;;;;;;;18.02;4.53;;;;;;;12.69;84.29;99054.38;4991717;28;20049;-75
2021/07/06 04:57:22;;;;;;;18.67;4.57;;;;;;;12.93;83.85;99066.63;4991514;28;20046;-77
2021/07/06 04:59:49;;;;;;;20.17;5.68;;;;;;;13.17;83.02;99063.94;4992135;28;20479;-75
2021/07/06 05:02:16;;;;;;;17.00;4.40;;;;;;;13.75;80.92;99061.28;4992428;28;20553;-76
2021/07/06 05:04:42;;;;;;;15.27;4.05;;;;;;;14.37;78.08;99077.44;4993345;28;20105;-75
2021/07/06 05:07:08;;;;;;;17.80;4.78;;;;;;;14.65;77.03;99066.53;4975820;28;20487;-78
2021/07/06 05:09:35;;;;;;;18.85;4.97;;;;;;;14.80;77.00;99091.53;4993252;28;20097;-76
2021/07/06 05:12:03;;;;;;;18.23;4.93;;;;;;;14.88;76.99;99091.75;4992993;28;20043;-76
2021/07/06 05:14:29;;;;;;;14.50;4.60;;;;;;;15.05;76.21;99100.88;4996418;28;20046;-76
2021/07/06 05:16:55;;;;;;;17.77;4.63;;;;;;;15.30;75.25;99108.53;4997024;28;20058;-75
2021/07/06 05:19:21;;;;;;;18.35;4.90;;;;;;;15.10;75.27;99107.53;4997061;28;20050;-79
2021/07/06 05:21:47;;;;;;;18.20;4.78;;;;;;;14.79;76.29;99124.03;4997319;28;20451;-79
2021/07/06 05:24:15;;;;;;;19.55;5.43;;;;;;;14.32;78.50;99128.63;4996716;28;20046;-78
2021/07/06 05:26:41;;;;;;;15.05;4.68;;;;;;;14.11;79.10;99131.16;4996035;28;20054;-78
2021/07/06 05:29:07;;;;;;;17.48;4.40;;;;;;;14.05;80.07;99120.19;4996871;28;20403;-79
2021/07/06 05:31:33;;;;;;;18.13;4.60;;;;;;;14.04;80.71;99118.53;5001737;28;20137;-79
2021/07/06 05:33:59;;;;;;;20.58;4.57;;;;;;;13.81;80.76;99090.63;4996753;28;20460;-79
2021/07/06 05:36:25;;;;;;;20.70;3.65;;;;;;;13.85;80.70;99120.91;5000187;28;20053;-78
2021/07/06 05:38:53;;;;;;;20.60;4.80;;;;;;;13.89;80.73;99138.06;4998143;28;20513;-80
2021/07/06 05:41:19;;;;;;;15.23;4.07;;;;;;;13.97;80.50;99134.88;4999344;28;20042;-80
2021/07/06 05:43:46;;;;;;;17.23;3.53;;;;;;;14.05;80.02;99143.00;5000136;28;20449;-80
2021/07/06 05:46:15;;;;;;;19.45;4.13;;;;;;;14.13;79.48;99156.31;5000437;28;20050;-82
2021/07/06 05:48:41;;;;;;;17.77;3.63;;;;;;;14.07;79.38;99143.69;5000887;28;20092;-80
2021/07/06 05:51:07;;;;;;;15.18;3.70;;;;;;;14.11;79.24;99153.00;4999279;28;20046;-80
2021/07/06 05:53:33;;;;;;;20.88;4.03;;;;;;;14.07;79.39;99167.28;4998256;28;20050;-81
2021/07/06 05:55:59;;;;;;;15.32;4.78;;;;;;;14.01;79.48;99144.16;4997898;28;20042;-81
2021/07/06 05:58:25;;;;;;;16.67;3.55;;;;;;;14.09;79.27;99152.28;4984282;28;20088;-81
2021/07/06 06:00:51;;;;;;;18.55;4.07;;;;;;;14.13;79.81;99169.44;4997377;28;20077;-79
2021/07/06 06:03:17;;;;;;;20.05;4.53;;;;;;;14.07;79.54;99172.53;4997809;28;20383;-79
2021/07/06 06:05:43;;;;;;;13.57;3.58;;;;;;;14.18;79.81;99175.16;4997746;28;20056;-80
2021/07/06 06:08:14;;;;;;;16.35;3.42;;;;;;;14.17;79.55;99170.03;4999847;28;20050;-80
2021/07/06 06:10:41;;;;;;;13.13;3.15;;;;;;;14.16;79.03;99178.88;4977461;28;20047;-79
2021/07/06 06:13:07;;;;;;;15.40;3.75;;;;;;;14.18;80.28;99177.78;4976999;28;20459;-78
2021/07/06 06:15:35;;;;;;;18.40;4.10;;;;;;;14.31;79.29;99179.47;4977965;28;20487;-78
2021/07/06 06:18:01;;;;;;;12.52;3.10;;;;;;;14.26;79.11;99182.47;4977367;28;20508;-78
2021/07/06 06:20:26;;;;;;;11.00;3.22;;;;;;;14.27;79.39;99181.50;4987757;28;20066;-79
2021/07/06 06:22:52;;;;;;;13.45;3.50;;;;;;;14.44;79.41;99185.44;4994800;28;20423;-76
2021/07/06 06:25:18;;;;;;;19.05;4.68;;;;;;;14.65;79.10;99198.69;4994644;28;20046;-76
2021/07/06 06:27:45;;;;;;;13.65;3.72;;;;;;;14.84;77.91;99197.22;4994802;28;20050;-75
2021/07/06 06:30:12;;;;;;;16.92;3.58;;;;;;;14.96;77.53;99200.66;4995315;28;20050;-76
2021/07/06 06:32:38;;;;;;;12.07;3.20;;;;;;;15.05;76.71;99195.50;4976699;28;20050;-76
2021/07/06 06:35:04;;;;;;;15.10;2.92;;;;;;;15.27;76.17;99208.66;4978903;28;20057;-77
2021/07/06 06:37:33;;;;;;;12.40;3.38;;;;;;;15.57;75.11;99207.13;4989293;28;20046;-78
2021/07/06 06:39:58;;;;;;;15.70;3.42;;;;;;;15.88;72.93;99212.47;4976779;28;20066;-79
2021/07/06 06:42:25;;;;;;;13.60;2.60;;;;;;;16.01;72.29;99213.09;4994700;28;20050;-79
2021/07/06 06:44:52;;;;;;;17.92;3.25;;;;;;;15.83;71.79;99218.09;4995709;28;20042;-77
2021/07/06 06:47:18;;;;;;;15.90;2.95;;;;;;;15.90;72.35;99219.25;4994880;28;20057;-81
2021/07/06 06:49:44;;;;;;;15.50;3.05;;;;;;;15.98;73.38;99221.25;4975321;28;20051;-79
2021/07/06 06:52:11;;;;;;;11.77;3.00;;;;;;;16.23;71.13;99213.91;4977129;28;20072;-78
2021/07/06 06:54:38;;;;;;;14.85;2.85;;;;;;;16.41;70.91;99229.94;4987004;28;20047;-81
2021/07/06 06:57:05;;;;;;;14.68;2.83;;;;;;;16.46;70.00;99202.19;4979810;28;20073;-77
2021/07/06 06:59:36;;;;;;;17.90;4.15;;;;;;;16.47;69.58;99229.41;4979228;28;20046;-80
2021/07/06 07:02:17;;;;;;;15.93;3.67;;;;;;;16.52;70.55;99236.91;4995277;28;20050;-79
2021/07/06 07:04:44;;;;;;;15.52;3.42;;;;;;;16.48;69.66;99246.88;4979378;28;20062;-81
2021/07/06 07:07:12;;;;;;;17.67;3.30;;;;;;;16.41;70.10;99251.00;4978444;28;20047;-80
2021/07/06 07:09:39;;;;;;;12.13;3.25;;;;;;;16.32;70.26;99261.34;4990346;28;20090;-78
2021/07/06 07:12:05;;;;;;;15.60;3.13;;;;;;;16.34;71.03;99269.09;5024111;28;20104;-77
2021/07/06 07:14:32;;;;;;;14.75;3.40;;;;;;;16.05;70.25;99279.47;4999503;28;20046;-81
2021/07/06 07:16:58;;;;;;;13.50;3.65;;;;;;;15.81;71.66;99285.78;4996624;28;20094;-80
2021/07/06 07:19:24;;;;;;;11.50;3.72;;;;;;;15.70;72.89;99281.41;4996253;28;20154;-80
2021/07/06 07:21:50;;;;;;;13.80;2.97;;;;;;;15.81;72.65;99288.44;4984840;28;20061;-80
2021/07/06 07:24:16;;;;;;;9.27;2.83;;;;;;;15.68;71.59;99283.34;4995772;28;20137;-80
2021/07/06 07:26:43;;;;;;;8.93;2.80;;;;;;;15.83;71.74;99300.53;4995390;28;20043;-79
2021/07/06 07:29:09;;;;;;;11.02;3.35;;;;;;;15.87;71.88;99298.47;4997268;28;20129;-78
2021/07/06 07:31:36;;;;;;;10.02;2.92;;;;;;;15.89;71.99;99311.50;5016911;28;20141;-80
2021/07/06 07:34:03;;;;;;;9.98;2.88;;;;;;;15.50;72.75;99320.72;5006811;28;20050;-79
2021/07/06 07:36:29;;;;;;;10.38;2.97;;;;;;;15.35;73.85;99314.03;4993559;28;20050;-74
2021/07/06 07:38:56;;;;;;;10.50;2.95;;;;;;;15.53;73.12;99330.13;4993549;28;20054;-74
2021/07/06 07:41:22;;;;;;;9.55;2.45;;;;;;;15.60;72.81;99335.72;4994536;28;20046;-74
2021/07/06 07:43:53;;;;;;;10.75;2.67;;;;;;;15.66;72.67;99345.75;4994107;28;20064;-76
2021/07/06 07:46:20;;;;;;;7.63;1.70;;;;;;;15.50;72.38;99340.88;4993711;28;20047;-77
2021/07/06 07:48:47;;;;;;;6.70;1.50;;;;;;;15.01;73.55;99362.25;4990263;28;20077;-75
2021/07/06 07:51:14;;;;;;;5.13;1.63;;;;;;;15.02;72.68;99358.66;4992762;28;20084;-79
2021/07/06 07:53:40;;;;;;;3.90;1.25;;;;;;;14.91;73.23;99369.16;4994123;28;20411;-78
2021/07/06 07:56:07;;;;;;;5.03;1.10;;;;;;;15.06;71.90;99375.00;4988543;28;20065;-77
2021/07/06 07:58:32;;;;;;;3.20;0.80;;;;;;;15.16;70.81;99349.69;5009007;28;20050;-79
2021/07/06 08:00:58;;;;;;;3.63;0.82;;;;;;;15.40;70.41;99372.34;4976803;28;20544;-80
2021/07/06 08:03:24;;;;;;;4.40;0.80;;;;;;;15.53;70.07;99385.38;4995063;28;20110;-79
2021/07/06 08:05:50;;;;;;;1.98;0.73;;;;;;;15.73;69.36;99404.78;4994581;28;20046;-80
2021/07/06 08:08:19;;;;;;;2.92;0.50;;;;;;;16.12;68.42;99401.72;4993577;28;20498;-81
2021/07/06 08:10:52;;;;;;;1.75;0.35;;;;;;;16.46;67.11;99406.81;4993145;28;20054;-77
2021/07/06 08:13:22;;;;;;;0.85;0.40;;;;;;;16.41;66.83;99416.91;4993327;28;20101;-80
2021/07/06 08:15:49;;;;;;;2.60;0.60;;;;;;;16.58;66.09;99410.22;4993709;28;20061;-77
2021/07/06 08:18:15;;;;;;;0.75;0.60;;;;;;;17.13;63.93;99433.72;4994565;28;20448;-76
2021/07/06 08:20:42;;;;;;;1.55;0.70;;;;;;;16.93;63.99;99433.63;5005658;28;20093;-78
2021/07/06 08:23:10;;;;;;;1.00;0.50;;;;;;;16.75;64.50;99435.16;5003249;28;20070;-77
2021/07/06 08:25:37;;;;;;;0.88;0.40;;;;;;;16.52;64.73;99452.91;5003784;28;20050;-80
2021/07/06 08:28:04;;;;;;;0.80;0.60;;;;;;;16.50;64.62;99450.38;5006463;28;20050;-75
2021/07/06 08:30:30;;;;;;;1.90;0.60;;;;;;;16.41;64.20;99456.41;4975818;28;20117;-76
2021/07/06 08:32:57;;;;;;;0.75;0.50;;;;;;;16.22;64.47;99449.19;4996678;28;20540;-80
2021/07/06 08:35:24;;;;;;;2.25;0.70;;;;;;;16.20;64.93;99444.06;5014444;28;20565;-80
2021/07/06 08:37:51;;;;;;;2.67;0.70;;;;;;;16.15;64.37;99469.94;5014183;28;20489;-80
2021/07/06 08:40:19;;;;;;;0.73;0.70;;;;;;;16.18;64.44;99490.72;5009561;28;20046;-79
2021/07/06 08:42:47;;;;;;;1.30;0.98;;;;;;;16.54;64.60;99501.84;4994425;28;20151;-77
2021/07/06 08:45:15;;;;;;;1.10;0.70;;;;;;;16.89;62.48;99491.97;4996529;28;20456;-77
2021/07/06 08:47:47;;;;;;;2.53;0.88;;;;;;;17.04;62.27;99495.13;4995010;28;20061;-77
2021/07/06 08:50:13;;;;;;;2.75;1.00;;;;;;;16.69;62.17;99498.91;5000555;28;20046;-77
2021/07/06 08:52:44;;;;;;;3.13;1.17;;;;;;;16.32;63.44;99514.13;5017414;28;20540;-77
2021/07/06 08:55:15;;;;;;;3.15;1.25;;;;;;;16.42;64.59;99514.22;4962079;28;20047;-75
2021/07/06 08:57:44;;;;;;;2.85;0.90;;;;;;;16.56;64.32;99523.63;4962309;28;20046;-77
2021/07/06 09:00:14;;;;;;;2.03;1.20;;;;;;;16.44;64.75;99520.22;4985191;28;20069;-77
2021/07/06 09:02:40;;;;;;;5.80;1.88;;;;;;;16.28;65.22;99512.72;4999255;28;20054;-78
2021/07/06 09:05:28;;;;;;;4.22;1.60;;;;;;;16.61;64.63;99531.16;4999055;28;20050;-79
2021/07/06 09:07:54;;;;;;;4.30;1.70;;;;;;;16.63;64.58;99529.22;4998590;28;20445;-78
2021/07/06 09:10:23;;;;;;;3.95;1.52;;;;;;;16.87;64.03;99555.34;4981077;28;20125;-81
2021/07/06 09:12:50;;;;;;;4.63;1.85;;;;;;;16.84;63.98;99541.59;4998749;28;20051;-81
2021/07/06 09:15:32;;;;;;;3.70;1.95;;;;;;;16.90;63.72;99539.28;5000612;28;20050;-80
2021/07/06 09:18:16;;;;;;;4.35;1.95;;;;;;;17.21;62.21;99563.13;4983812;28;20153;-78
2021/07/06 09:21:16;;;;;;;4.90;2.10;;;;;;;17.03;63.03;99562.00;4980581;28;20046;-79
2021/07/06 09:23:49;;;;;;;5.82;2.30;;;;;;;16.64;63.60;99568.63;4998045;28;20043;-76
2021/07/06 09:26:19;;;;;;;5.90;2.13;;;;;;;16.67;64.03;99590.41;4998964;28;20140;-83
2021/07/06 09:28:56;;;;;;;5.10;2.60;;;;;;;16.72;63.14;99565.38;5007440;28;20129;-79
2021/07/06 09:31:25;;;;;;;4.43;2.05;;;;;;;16.79;61.75;99594.69;5013281;28;20061;-81
2021/07/06 09:33:58;;;;;;;4.18;2.28;;;;;;;16.49;62.56;99581.25;4984852;28;20047;-79
2021/07/06 09:36:35;;;;;;;6.72;2.92;;;;;;;16.50;63.08;99597.88;4996135;28;20043;-80
2021/07/06 09:39:15;;;;;;;7.93;2.90;;;;;;;16.40;63.33;99599.59;4996984;28;20085;-80
2021/07/06 09:41:53;;;;;;;8.32;3.05;;;;;;;16.77;61.93;99600.09;4998910;28;20050;-79
2021/07/06 09:44:24;;;;;;;7.45;2.85;;;;;;;17.23;60.39;99613.09;5002393;28;20053;-78
2021/07/06 09:47:07;;;;;;;6.47;2.88;;;;;;;17.36;59.63;99645.38;5000370;28;20047;-76
2021/07/06 09:49:39;;;;;;;6.68;2.70;;;;;;;17.43;58.03;99624.59;4996792;28;20108;-76
2021/07/06 09:52:23;;;;;;;4.78;2.55;;;;;;;17.69;57.03;99651.41;4997764;28;20077;-77
2021/07/06 09:54:51;;;;;;;7.20;2.90;;;;;;;17.66;57.90;99645.56;4997310;28;20503;-80
2021/07/06 09:57:31;;;;;;;4.45;2.47;;;;;;;17.43;57.98;99653.59;4997830;28;20054;-77
2021/07/06 09:59:57;;;;;;;6.13;2.50;;;;;;;17.41;58.67;99651.09;5012322;28;20478;-78
2021/07/06 10:02:26;;;;;;;4.68;2.25;;;;;;;17.81;57.51;99648.69;4998553;28;20145;-75
2021/07/06 10:04:54;;;;;;;4.68;2.28;;;;;;;18.02;56.76;99646.88;4997477;28;20054;-76
2021/07/06 10:07:22;;;;;;;4.63;2.38;;;;;;;17.83;56.38;99662.59;4965523;28;20052;-76
2021/07/06 10:09:50;;;;;;;4.78;2.25;;;;;;;17.66;55.33;99649.03;5001028;28;20053;-76
2021/07/06 10:12:19;;;;;;;5.32;2.35;;;;;;;18.13;55.45;99666.25;5010661;28;20034;-78
2021/07/06 10:14:47;;;;;;;7.13;2.25;;;;;;;18.17;55.52;99650.00;5017279;28;20128;-76
2021/07/06 10:17:13;;;;;;;5.28;2.55;;;;;;;18.27;55.35;99671.16;5017840;28;20122;-78
2021/07/06 10:19:44;;;;;;;5.10;2.13;;;;;;;18.02;54.84;99672.47;5016259;28;20065;-76
2021/07/06 10:22:13;;;;;;;5.43;2.28;;;;;;;18.37;55.24;99690.53;5016443;28;20046;-75
2021/07/06 10:24:42;;;;;;;7.20;2.40;;;;;;;18.35;54.33;99700.41;5004910;28;20064;-79
2021/07/06 10:27:29;;;;;;;6.22;2.33;;;;;;;17.93;55.29;99692.53;5001487;28;20084;-78
2021/07/06 10:30:16;;;;;;;5.85;2.28;;;;;;;18.13;55.09;99685.56;4986743;28;20050;-77
2021/07/06 10:32:51;;;;;;;7.03;2.33;;;;;;;18.43;54.22;99694.47;4998461;28;20078;-79
2021/07/06 10:35:39;;;;;;;7.70;2.40;;;;;;;18.55;54.75;99696.03;5001491;28;20438;-78
2021/07/06 10:38:33;;;;;;;6.93;2.17;;;;;;;18.80;53.03;99708.88;4999179;28;20046;-78
2021/07/06 10:41:07;;;;;;;5.47;1.98;;;;;;;18.49;53.34;99727.44;4998748;28;20046;-82
2021/07/06 10:43:42;;;;;;;5.78;2.15;;;;;;;18.19;53.82;99724.66;4981997;28;20126;-78
2021/07/06 10:46:16;;;;;;;6.57;2.00;;;;;;;18.57;53.62;99703.81;5000540;28;20046;-79
2021/07/06 10:48:44;;;;;;;7.50;1.98;;;;;;;18.87;52.97;99710.84;5012858;28;20123;-81
2021/07/06 10:51:34;;;;;;;7.07;2.42;;;;;;;19.52;51.80;99704.22;4998898;28;20061;-78
2021/07/06 10:54:07;;;;;;;6.60;2.30;;;;;;;19.51;51.87;99716.59;4998672;28;20102;-76
2021/07/06 10:56:36;;;;;;;5.30;2.13;;;;;;;19.20;53.20;99718.56;4998235;28;20559;-78
2021/07/06 10:59:05;;;;;;;5.40;1.85;;;;;;;18.84;54.67;99708.44;4980544;28;20050;-80
2021/07/06 11:01:37;;;;;;;4.88;2.15;;;;;;;19.00;55.18;99741.50;4977866;28;20186;-78
2021/07/06 11:04:09;;;;;;;6.72;1.90;;;;;;;19.44;53.62;99734.00;4958430;28;20051;-79
2021/07/06 11:06:47;;;;;;;8.73;2.15;;;;;;;19.87;52.09;99739.84;4957361;28;20070;-82
2021/07/06 11:09:36;;;;;;;4.55;1.90;;;;;;;19.96;52.79;99751.41;4958191;29;20074;-82
2021/07/06 11:12:23;;;;;;;5.47;2.10;;;;;;;19.55;53.71;99754.22;4928830;28;20075;-86
2021/07/06 11:14:56;;;;;;;5.47;2.08;;;;;;;19.29;53.58;99760.06;4960784;28;20074;-77
2021/07/06 11:17:34;;;;;;;8.07;2.45;;;;;;;19.14;54.25;99761.44;4958892;28;20050;-79
2021/07/06 11:20:05;;;;;;;7.63;2.40;;;;;;;19.16;53.47;99775.34;4961523;28;20043;-73
2021/07/06 11:22:44;;;;;;;5.43;2.28;;;;;;;19.09;53.33;99776.88;4956942;29;20051;-80
2021/07/06 11:25:37;;;;;;;5.30;1.95;;;;;;;18.62;53.86;99764.22;4953411;28;20074;-76
2021/07/06 11:28:27;;;;;;;4.60;2.15;;;;;;;18.79;54.20;99763.56;4946137;28;20051;-77
2021/07/06 11:31:01;;;;;;;5.80;2.40;;;;;;;18.86;54.39;99759.41;4964584;28;20055;-79
2021/07/06 11:33:31;;;;;;;6.07;2.08;;;;;;;18.92;54.89;99792.44;4959281;28;20043;-85
2021/07/06 11:36:02;;;;;;;6.95;2.08;;;;;;;19.32;54.67;99804.78;4959722;28;20051;-84